createdAt,value
2018-03-14T00:00:47.671Z,8.73
2018-03-14T00:03:15.171Z,7.70
2018-03-14T00:05:42.748Z,7.57
2018-03-14T00:08:11.089Z,8.23
2018-03-14T00:10:38.610Z,7.40
2018-03-14T00:13:06.171Z,8.05
2018-03-14T00:15:33.681Z,8.13
2018-03-14T00:18:01.214Z,7.03
2018-03-14T00:20:29.130Z,8.00
2018-03-14T00:22:56.632Z,10.50
2018-03-14T00:25:24.540Z,10.37
2018-03-14T00:27:53.020Z,11.77
2018-03-14T00:30:20.531Z,9.83
2018-03-14T00:32:48.452Z,11.37
2018-03-14T00:35:15.954Z,10.55
2018-03-14T00:37:43.857Z,10.27
2018-03-14T00:40:11.391Z,10.70
2018-03-14T00:42:39.300Z,10.18
2018-03-14T00:45:06.792Z,10.83
2018-03-14T00:47:34.314Z,13.00
2018-03-14T00:50:01.848Z,11.20
2018-03-14T00:52:29.349Z,13.67
2018-03-14T00:54:56.855Z,11.40
2018-03-14T00:57:24.375Z,10.27
2018-03-14T00:59:51.887Z,10.83
2018-03-14T01:02:19.386Z,8.63
2018-03-14T01:04:46.917Z,9.57
2018-03-14T01:07:14.431Z,9.67
2018-03-14T01:09:42.341Z,9.77
2018-03-14T01:12:09.839Z,12.43
2018-03-14T01:14:37.766Z,9.38
2018-03-14T01:17:05.267Z,9.87
2018-03-14T01:19:32.786Z,10.10
2018-03-14T01:22:00.319Z,7.97
2018-03-14T01:24:27.835Z,8.80
2018-03-14T01:26:55.747Z,8.00
2018-03-14T01:29:23.253Z,9.13
2018-03-14T01:31:50.794Z,7.70
2018-03-14T01:34:18.302Z,7.20
2018-03-14T01:36:45.811Z,6.53
2018-03-14T01:39:13.333Z,7.43
2018-03-14T01:41:40.863Z,5.93
2018-03-14T01:44:08.862Z,6.62
2018-03-14T01:46:36.443Z,4.43
2018-03-14T01:49:03.955Z,4.83
2018-03-14T01:51:32.069Z,3.83
2018-03-14T01:53:59.580Z,4.07
2018-03-14T01:56:27.503Z,4.62
2018-03-14T01:58:55.045Z,4.07
2018-03-14T02:01:22.542Z,4.53
2018-03-14T02:03:50.066Z,4.30
2018-03-14T02:06:17.626Z,6.13
2018-03-14T02:08:45.136Z,5.00
2018-03-14T02:11:13.042Z,6.05
2018-03-14T02:13:40.569Z,5.05
2018-03-14T02:16:08.071Z,5.03
2018-03-14T02:18:35.613Z,5.70
2018-03-14T02:21:03.116Z,5.20
2018-03-14T02:23:30.623Z,5.85
2018-03-14T02:25:58.135Z,7.05
2018-03-14T02:28:26.044Z,5.05
2018-03-14T02:30:53.553Z,6.43
2018-03-14T02:33:21.062Z,6.20
2018-03-14T02:35:48.599Z,5.68
2018-03-14T02:38:16.120Z,7.57
2018-03-14T02:40:43.644Z,4.87
2018-03-14T02:43:11.143Z,7.17
2018-03-14T02:45:38.659Z,5.28
2018-03-14T02:48:06.165Z,6.25
2018-03-14T02:50:33.652Z,6.78
2018-03-14T02:53:01.159Z,7.63
2018-03-14T02:55:28.642Z,7.07
2018-03-14T02:57:56.128Z,6.40
2018-03-14T03:00:23.624Z,5.97
2018-03-14T03:02:51.119Z,7.22
2018-03-14T03:05:18.663Z,6.75
2018-03-14T03:07:46.155Z,5.95
2018-03-14T03:10:13.671Z,6.90
2018-03-14T03:12:41.171Z,6.37
2018-03-14T03:15:09.046Z,7.13
2018-03-14T03:17:36.549Z,6.73
2018-03-14T03:20:04.049Z,6.17
2018-03-14T03:22:31.567Z,5.90
2018-03-14T03:24:59.077Z,7.30
2018-03-14T03:27:26.594Z,8.20
2018-03-14T03:29:54.082Z,6.77
2018-03-14T03:32:21.600Z,6.53
2018-03-14T03:34:49.103Z,8.88
2018-03-14T03:37:16.595Z,8.57
2018-03-14T03:39:44.315Z,8.57
2018-03-14T03:42:11.806Z,5.63
2018-03-14T03:44:39.327Z,5.65
2018-03-14T03:47:06.819Z,5.93
2018-03-14T03:49:34.336Z,5.32
2018-03-14T03:52:02.222Z,7.70
2018-03-14T03:54:29.707Z,10.07
2018-03-14T03:56:57.337Z,10.73
2018-03-14T03:59:24.903Z,6.03
2018-03-14T04:01:52.394Z,6.90
2018-03-14T04:04:19.877Z,6.03
2018-03-14T04:06:47.767Z,6.53
2018-03-14T04:09:15.260Z,5.85
2018-03-14T04:11:42.756Z,5.93
2018-03-14T04:14:10.261Z,6.00
2018-03-14T04:16:37.747Z,7.60
2018-03-14T04:19:05.246Z,5.95
2018-03-14T04:21:33.185Z,6.37
2018-03-14T04:24:01.451Z,6.33
2018-03-14T04:26:28.939Z,7.57
2018-03-14T04:28:56.857Z,8.37
2018-03-14T04:31:24.348Z,8.67
2018-03-14T04:33:53.248Z,8.20
2018-03-14T04:36:22.516Z,9.07
2018-03-14T04:38:50.010Z,8.27
2018-03-14T04:41:18.196Z,6.10
2018-03-14T04:43:45.679Z,7.27
2018-03-14T04:46:13.156Z,8.33
2018-03-14T04:48:40.696Z,6.60
2018-03-14T04:51:08.191Z,7.73
2018-03-14T04:53:35.683Z,7.50
2018-03-14T04:56:04.130Z,6.40
2018-03-14T04:58:31.624Z,6.25
2018-03-14T05:00:59.167Z,7.12
2018-03-14T05:03:26.682Z,9.02
2018-03-14T05:05:54.182Z,5.30
2018-03-14T05:08:21.727Z,5.27
2018-03-14T05:10:49.221Z,5.67
2018-03-14T05:13:16.711Z,5.32
2018-03-14T05:15:44.216Z,5.93
2018-03-14T05:18:11.727Z,6.82
2018-03-14T05:20:39.291Z,6.00
2018-03-14T05:23:06.804Z,10.00
2018-03-14T05:25:34.307Z,6.87
2018-03-14T05:28:01.787Z,7.63
2018-03-14T05:30:29.678Z,7.15
2018-03-14T05:32:57.186Z,6.68
2018-03-14T05:35:24.700Z,7.60
2018-03-14T05:37:52.210Z,10.27
2018-03-14T05:40:19.698Z,8.52
2018-03-14T05:45:21.587Z,6.45
2018-03-14T05:47:49.113Z,8.70
2018-03-14T05:50:16.578Z,8.45
2018-03-14T05:52:44.473Z,8.38
2018-03-14T05:55:11.967Z,13.07
2018-03-14T05:57:39.467Z,7.60
2018-03-14T06:00:07.372Z,9.88
2018-03-14T06:02:34.860Z,8.30
2018-03-14T06:05:02.351Z,8.77
2018-03-14T06:07:30.238Z,10.13
2018-03-14T06:09:57.719Z,9.10
2018-03-14T06:12:25.214Z,11.00
2018-03-14T06:14:53.103Z,7.37
2018-03-14T06:17:20.615Z,7.20
2018-03-14T06:19:48.107Z,8.85
2018-03-14T06:22:15.630Z,7.62
2018-03-14T06:24:43.128Z,8.70
2018-03-14T06:27:10.619Z,10.95
2018-03-14T06:29:38.116Z,8.02
2018-03-14T06:32:05.624Z,10.52
2018-03-14T06:34:33.130Z,8.95
2018-03-14T06:37:00.624Z,8.00
2018-03-14T06:39:28.127Z,6.55
2018-03-14T06:41:55.617Z,9.20
2018-03-14T06:44:23.522Z,11.23
2018-03-14T06:46:51.040Z,7.03
2018-03-14T06:49:18.920Z,8.05
2018-03-14T06:51:46.826Z,10.75
2018-03-14T06:54:14.319Z,7.82
2018-03-14T06:56:41.800Z,8.60
2018-03-14T06:59:21.300Z,8.52
2018-03-14T07:02:00.611Z,8.10
2018-03-14T07:04:37.967Z,6.80
2018-03-14T07:07:05.452Z,9.90
2018-03-14T07:09:32.932Z,8.02
2018-03-14T07:12:00.439Z,7.90
2018-03-14T07:14:27.927Z,6.17
2018-03-14T07:16:55.435Z,7.77
2018-03-14T07:19:23.327Z,9.30
2018-03-14T07:21:50.823Z,5.72
2018-03-14T07:24:18.311Z,9.03
2018-03-14T07:26:45.800Z,7.47
2018-03-14T07:29:13.347Z,8.67
2018-03-14T07:31:40.798Z,10.27
2018-03-14T07:34:08.299Z,7.22
2018-03-14T07:36:35.823Z,6.70
2018-03-14T07:39:03.328Z,6.32
2018-03-14T07:41:30.815Z,9.13
2018-03-14T07:43:58.721Z,5.67
2018-03-14T07:46:26.215Z,5.87
2018-03-14T07:48:53.700Z,6.87
2018-03-14T07:51:21.609Z,5.50
2018-03-14T07:53:49.132Z,6.77
2018-03-14T07:56:17.016Z,5.70
2018-03-14T07:58:44.515Z,4.70
2018-03-14T08:01:12.101Z,6.67
2018-03-14T08:03:39.522Z,7.17
2018-03-14T08:06:07.016Z,10.40
2018-03-14T08:08:34.899Z,3.77
2018-03-14T08:11:02.408Z,7.40
2018-03-14T08:13:29.946Z,8.70
2018-03-14T08:15:57.803Z,5.87
2018-03-14T08:18:25.291Z,7.53
2018-03-14T08:20:52.792Z,4.23
2018-03-14T08:23:20.667Z,6.63
2018-03-14T08:25:48.148Z,7.23
2018-03-14T08:28:15.647Z,5.00
2018-03-14T08:30:43.130Z,5.43
2018-03-14T08:33:10.620Z,8.23
2018-03-14T08:35:38.114Z,4.97
2018-03-14T08:38:05.600Z,3.90
2018-03-14T08:40:33.494Z,6.83
2018-03-14T08:43:00.987Z,6.77
2018-03-14T08:45:28.474Z,6.80
2018-03-14T08:47:56.359Z,5.97
2018-03-14T08:50:23.925Z,4.10
2018-03-14T08:52:51.378Z,5.93
2018-03-14T08:55:18.862Z,4.47
2018-03-14T08:57:46.347Z,3.83
2018-03-14T09:00:13.875Z,6.40
2018-03-14T09:02:41.352Z,5.63
2018-03-14T09:05:08.863Z,3.80
2018-03-14T09:07:36.355Z,5.40
2018-03-14T09:10:03.848Z,4.57
2018-03-14T09:12:31.735Z,5.93
2018-03-14T09:14:59.218Z,5.93
2018-03-14T09:17:26.727Z,4.00
2018-03-14T09:19:54.622Z,8.13
2018-03-14T09:22:22.111Z,4.87
2018-03-14T09:24:49.607Z,5.87
2018-03-14T09:27:17.484Z,4.90
2018-03-14T09:29:45.411Z,5.07
2018-03-14T09:32:12.895Z,5.87
2018-03-14T09:34:40.779Z,5.47
2018-03-14T09:37:08.270Z,6.23
2018-03-14T09:39:35.752Z,5.33
2018-03-14T09:42:03.241Z,4.53
2018-03-14T09:44:30.744Z,3.70
2018-03-14T09:46:58.257Z,5.00
2018-03-14T09:49:26.138Z,5.53
2018-03-14T09:51:53.627Z,5.20
2018-03-14T09:54:21.128Z,5.17
2018-03-14T09:56:48.611Z,3.90
2018-03-14T09:59:16.100Z,4.13
2018-03-14T10:01:43.585Z,5.57
2018-03-14T10:04:11.139Z,4.83
2018-03-14T10:06:38.618Z,4.10
2018-03-14T10:09:06.558Z,4.10
2018-03-14T10:11:34.019Z,4.87
2018-03-14T10:14:01.566Z,3.43
2018-03-14T10:16:29.022Z,3.20
2018-03-14T10:18:56.507Z,7.77
2018-03-14T10:21:23.991Z,3.30
2018-03-14T10:23:51.498Z,4.13
2018-03-14T10:26:18.986Z,9.87
2018-03-14T10:28:46.883Z,4.63
2018-03-14T10:31:14.375Z,5.23
2018-03-14T10:33:41.867Z,6.33
2018-03-14T10:36:09.763Z,4.17
2018-03-14T10:38:37.241Z,5.00
2018-03-14T10:41:04.731Z,3.97
2018-03-14T10:43:32.228Z,3.87
2018-03-14T10:45:59.719Z,3.77
2018-03-14T10:48:27.203Z,3.60
2018-03-14T10:50:54.695Z,6.17
2018-03-14T10:53:22.192Z,6.27
2018-03-14T10:55:49.678Z,4.77
2018-03-14T10:58:17.191Z,4.53
2018-03-14T11:00:50.440Z,4.47
2018-03-14T11:03:18.346Z,3.20
2018-03-14T11:05:45.852Z,4.80
2018-03-14T11:08:13.339Z,4.97
2018-03-14T11:10:40.827Z,5.50
2018-03-14T11:13:08.314Z,5.07
2018-03-14T11:15:35.837Z,4.80
2018-03-14T11:18:03.363Z,8.33
2018-03-14T11:20:30.856Z,6.17
2018-03-14T11:22:58.363Z,5.13
2018-03-14T11:25:25.873Z,5.03
2018-03-14T11:27:53.411Z,3.27
2018-03-14T11:30:20.905Z,5.80
2018-03-14T11:32:48.398Z,5.23
2018-03-14T11:35:15.891Z,8.17
2018-03-14T11:37:43.406Z,3.43
2018-03-14T11:40:11.287Z,3.53
2018-03-14T11:42:39.167Z,5.13
2018-03-14T11:45:06.655Z,5.67
2018-03-14T11:47:34.151Z,4.03
2018-03-14T11:50:02.052Z,4.50
2018-03-14T11:52:29.536Z,5.77
2018-03-14T11:54:57.027Z,4.37
2018-03-14T11:57:24.910Z,6.27
2018-03-14T11:59:52.782Z,3.90
2018-03-14T12:02:20.278Z,4.60
2018-03-14T12:04:47.760Z,4.50
2018-03-14T12:07:15.255Z,4.73
2018-03-14T12:09:42.746Z,6.50
2018-03-14T12:12:10.280Z,4.00
2018-03-14T12:14:37.772Z,4.43
2018-03-14T12:17:05.264Z,5.37
2018-03-14T12:19:32.777Z,7.40
2018-03-14T12:22:00.285Z,5.97
2018-03-14T12:24:28.179Z,6.30
2018-03-14T12:26:55.693Z,4.33
2018-03-14T12:29:23.184Z,5.23
2018-03-14T12:31:50.675Z,5.73
2018-03-14T12:34:18.182Z,4.90
2018-03-14T12:36:46.084Z,7.03
2018-03-14T12:39:13.577Z,5.50
2018-03-14T12:41:41.062Z,5.43
2018-03-14T12:44:08.980Z,7.07
2018-03-14T12:46:36.463Z,4.63
2018-03-14T12:49:03.946Z,4.53
2018-03-14T12:51:31.836Z,6.67
2018-03-14T12:53:59.356Z,5.60
2018-03-14T12:56:26.847Z,4.77
2018-03-14T12:58:54.339Z,5.17
2018-03-14T13:01:21.823Z,5.33
2018-03-14T13:03:49.317Z,6.03
2018-03-14T13:06:16.833Z,5.53
2018-03-14T13:08:44.315Z,8.83
2018-03-14T13:11:12.202Z,6.40
2018-03-14T13:13:39.691Z,4.97
2018-03-14T13:16:07.200Z,5.27
2018-03-14T13:18:35.071Z,4.43
2018-03-14T13:21:02.551Z,5.10
2018-03-14T13:23:30.037Z,7.97
2018-03-14T13:25:57.526Z,4.37
2018-03-14T13:28:25.411Z,4.50
2018-03-14T13:30:52.912Z,4.60
2018-03-14T13:33:20.393Z,5.20
2018-03-14T13:35:47.881Z,5.27
2018-03-14T13:38:15.363Z,5.03
2018-03-14T13:40:42.847Z,5.47
2018-03-14T13:43:10.346Z,4.73
2018-03-14T13:45:37.845Z,6.93
2018-03-14T13:48:05.330Z,4.90
2018-03-14T13:50:32.828Z,5.00
2018-03-14T13:53:00.308Z,5.17
2018-03-14T13:55:27.806Z,5.63
2018-03-14T13:57:55.295Z,5.67
2018-03-14T14:00:22.780Z,5.47
2018-03-14T14:02:50.281Z,5.17
2018-03-14T14:05:18.994Z,4.97
2018-03-14T14:07:46.537Z,5.13
2018-03-14T14:10:13.976Z,4.93
2018-03-14T14:12:41.470Z,6.77
2018-03-14T14:15:08.981Z,6.27
2018-03-14T14:17:36.475Z,5.00
2018-03-14T14:20:03.976Z,5.77
2018-03-14T14:22:31.459Z,5.03
2018-03-14T14:24:58.981Z,5.13
2018-03-14T14:27:26.443Z,6.03
2018-03-14T14:29:53.933Z,5.40
2018-03-14T14:32:21.411Z,5.00
2018-03-14T14:34:49.316Z,4.70
2018-03-14T14:37:16.813Z,4.47
2018-03-14T14:39:44.313Z,5.17
2018-03-14T14:42:11.796Z,5.73
2018-03-14T14:44:39.310Z,5.20
2018-03-14T14:47:07.211Z,5.13
2018-03-14T14:49:34.692Z,5.00
2018-03-14T14:52:02.168Z,6.63
2018-03-14T14:54:29.674Z,5.53
2018-03-14T14:56:57.163Z,6.10
2018-03-14T14:59:24.651Z,5.03
2018-03-14T15:01:52.139Z,5.23
2018-03-14T15:04:19.633Z,6.97
2018-03-14T15:06:47.237Z,4.80
2018-03-14T15:09:14.756Z,7.10
2018-03-14T15:11:42.237Z,5.60
2018-03-14T15:14:09.743Z,5.00
2018-03-14T15:16:37.264Z,5.43
2018-03-14T15:19:04.756Z,5.87
2018-03-14T15:21:32.366Z,4.70
2018-03-14T15:24:00.165Z,4.87
2018-03-14T15:26:27.659Z,4.53
2018-03-14T15:28:55.169Z,3.70
2018-03-14T15:31:22.672Z,6.10
2018-03-14T15:33:50.159Z,4.17
2018-03-14T15:36:18.066Z,3.63
2018-03-14T15:38:45.572Z,5.27
2018-03-14T15:41:13.052Z,5.20
2018-03-14T15:43:40.562Z,4.40
2018-03-14T15:46:08.107Z,6.33
2018-03-14T15:48:35.606Z,5.23
2018-03-14T15:51:04.356Z,5.20
2018-03-14T15:53:31.864Z,5.13
2018-03-14T15:55:59.769Z,3.00
2018-03-14T15:58:27.256Z,4.60
2018-03-14T16:00:54.757Z,3.70
2018-03-14T16:03:22.283Z,3.87
2018-03-14T16:05:49.801Z,4.43
2018-03-14T16:08:17.304Z,8.00
2018-03-14T16:10:44.821Z,4.00
2018-03-14T16:13:12.316Z,2.87
2018-03-14T16:15:39.815Z,4.63
2018-03-14T16:18:07.336Z,4.97
2018-03-14T16:20:35.210Z,4.17
2018-03-14T16:23:03.146Z,6.33
2018-03-14T16:25:30.627Z,4.60
2018-03-14T16:27:58.597Z,6.77
2018-03-14T16:30:26.057Z,4.43
2018-03-14T16:32:53.945Z,7.40
2018-03-14T16:35:21.458Z,3.47
2018-03-14T16:37:48.980Z,4.57
2018-03-14T16:40:16.462Z,3.20
2018-03-14T16:42:43.942Z,5.23
2018-03-14T16:45:11.440Z,5.80
2018-03-14T16:47:38.938Z,6.20
2018-03-14T16:50:06.432Z,5.53
2018-03-14T16:52:34.412Z,5.23
2018-03-14T16:55:01.940Z,4.20
2018-03-14T16:57:29.829Z,4.63
2018-03-14T16:59:57.335Z,4.47
2018-03-14T17:02:24.840Z,2.63
2018-03-14T17:04:52.723Z,4.17
2018-03-14T17:07:20.255Z,5.53
2018-03-14T17:09:48.167Z,9.23
2018-03-14T17:12:15.676Z,4.27
2018-03-14T17:14:43.569Z,5.00
2018-03-14T17:17:11.066Z,5.07
2018-03-14T17:19:38.555Z,6.60
2018-03-14T17:22:06.444Z,4.73
2018-03-14T17:24:33.948Z,6.37
2018-03-14T17:27:01.501Z,5.90
2018-03-14T17:29:28.998Z,8.73
2018-03-14T17:31:56.901Z,5.37
2018-03-14T17:34:25.838Z,5.90
2018-03-14T17:36:54.538Z,5.50
2018-03-14T17:39:22.972Z,6.33
2018-03-14T17:41:51.982Z,7.50
2018-03-14T17:44:19.580Z,10.60
2018-03-14T17:46:47.472Z,6.63
2018-03-14T17:49:15.013Z,8.37
2018-03-14T17:51:42.529Z,7.67
2018-03-14T17:54:10.093Z,8.73
2018-03-14T17:56:37.615Z,9.40
2018-03-14T17:59:05.143Z,11.07
2018-03-14T18:01:32.668Z,8.83
2018-03-14T18:04:00.171Z,11.87
2018-03-14T18:06:27.717Z,9.27
2018-03-14T18:08:55.228Z,11.60
2018-03-14T18:11:22.736Z,10.90
2018-03-14T18:13:50.227Z,10.77
2018-03-14T18:16:17.744Z,10.23
2018-03-14T18:18:45.245Z,9.27
2018-03-14T18:21:12.737Z,7.97
2018-03-14T18:23:40.634Z,9.90
2018-03-14T18:26:08.199Z,6.47
2018-03-14T18:28:35.699Z,7.23
2018-03-14T18:31:03.204Z,8.30
2018-03-14T18:33:30.722Z,10.73
2018-03-14T18:35:58.234Z,7.30
2018-03-14T18:38:25.743Z,10.40
2018-03-14T18:40:53.648Z,10.70
2018-03-14T18:43:21.163Z,10.43
2018-03-14T18:45:49.074Z,10.13
2018-03-14T18:48:16.599Z,10.73
2018-03-14T18:50:44.564Z,6.80
2018-03-14T18:53:12.225Z,11.20
2018-03-14T18:55:39.731Z,10.50
2018-03-14T18:58:07.260Z,11.12
2018-03-14T19:00:34.821Z,11.77
2018-03-14T19:03:02.333Z,9.33
2018-03-14T19:05:29.843Z,8.82
2018-03-14T19:07:57.374Z,10.85
2018-03-14T19:10:25.278Z,10.48
2018-03-14T19:12:52.758Z,7.50
2018-03-14T19:15:20.259Z,9.30
2018-03-14T19:17:48.156Z,10.45
2018-03-14T19:20:15.660Z,11.40
2018-03-14T19:22:43.160Z,8.90
2018-03-14T19:25:10.668Z,14.48
2018-03-14T19:27:38.167Z,11.35
2018-03-14T19:30:06.075Z,11.65
2018-03-14T19:32:33.595Z,10.77
2018-03-14T19:35:01.300Z,15.75
2018-03-14T19:37:28.847Z,12.48
2018-03-14T19:39:57.260Z,12.20
2018-03-14T19:42:24.939Z,14.52
2018-03-14T19:44:52.464Z,11.57
2018-03-14T19:47:20.034Z,13.32
2018-03-14T19:49:47.567Z,10.82
2018-03-14T19:52:15.133Z,10.32
2018-03-14T19:54:42.655Z,12.18
2018-03-14T19:57:10.167Z,11.18
2018-03-14T19:59:37.742Z,13.40
2018-03-14T20:02:05.251Z,14.45
2018-03-14T20:04:32.789Z,15.60
2018-03-14T20:07:00.329Z,12.95
2018-03-14T20:09:28.236Z,14.43
2018-03-14T20:11:55.721Z,15.63
2018-03-14T20:14:23.244Z,12.77
2018-03-14T20:16:50.948Z,14.05
2018-03-14T20:19:18.450Z,13.60
2018-03-14T20:21:45.988Z,14.80
2018-03-14T20:24:14.527Z,8.07
2018-03-14T20:26:42.044Z,11.00
2018-03-14T20:29:09.571Z,12.88
2018-03-14T20:31:37.095Z,12.80
2018-03-14T20:34:04.591Z,13.65
2018-03-14T20:36:32.631Z,7.70
2018-03-14T20:39:00.236Z,9.90
2018-03-14T20:41:27.744Z,11.02
2018-03-14T20:43:55.327Z,12.60
2018-03-14T20:46:22.930Z,13.45
2018-03-14T20:48:50.426Z,6.10
2018-03-14T20:51:17.955Z,10.77
2018-03-14T20:53:45.495Z,12.23
2018-03-14T20:56:13.052Z,11.12
2018-03-14T20:58:40.506Z,9.75
2018-03-14T21:01:08.018Z,14.30
2018-03-14T21:03:35.548Z,10.27
2018-03-14T21:06:03.070Z,9.07
2018-03-14T21:08:30.542Z,13.48
2018-03-14T21:10:58.090Z,10.35
2018-03-14T21:13:25.622Z,10.32
2018-03-14T21:15:53.116Z,9.52
2018-03-14T21:18:20.699Z,9.18
2018-03-14T21:20:48.185Z,11.30
2018-03-14T21:23:15.671Z,9.25
2018-03-14T21:25:43.577Z,9.27
2018-03-14T21:28:11.077Z,10.93
2018-03-14T21:30:38.577Z,9.32
2018-03-14T21:33:06.080Z,11.85
2018-03-14T21:35:33.576Z,11.50
2018-03-14T21:38:01.542Z,11.63
2018-03-14T21:40:29.144Z,12.02
2018-03-14T21:42:56.672Z,11.23
2018-03-14T21:45:24.182Z,10.43
2018-03-14T21:47:51.710Z,8.20
2018-03-14T21:50:19.270Z,10.77
2018-03-14T21:52:46.771Z,9.30
2018-03-14T21:55:14.297Z,9.77
2018-03-14T21:57:41.815Z,8.70
2018-03-14T22:00:09.313Z,5.53
2018-03-14T22:02:36.886Z,8.40
2018-03-14T22:05:04.486Z,10.48
2018-03-14T22:07:32.058Z,8.27
2018-03-14T22:09:59.619Z,11.77
2018-03-14T22:12:27.202Z,9.15
2018-03-14T22:14:59.614Z,8.90
2018-03-14T22:17:27.640Z,10.43
2018-03-14T22:19:55.251Z,10.52
2018-03-14T22:22:23.236Z,10.75
2018-03-14T22:24:50.799Z,11.02
2018-03-14T22:27:18.594Z,9.82
2018-03-14T22:29:46.118Z,6.65
2018-03-14T22:32:13.896Z,6.40
2018-03-14T22:34:41.387Z,4.82
2018-03-14T22:37:08.914Z,6.07
2018-03-14T22:39:36.418Z,7.43
2018-03-14T22:42:03.914Z,5.87
2018-03-14T22:44:31.516Z,11.32
2018-03-14T22:46:59.899Z,9.27
2018-03-14T22:49:27.426Z,8.05
2018-03-14T22:51:54.912Z,7.18
2018-03-14T22:54:22.463Z,7.30
2018-03-14T22:56:50.763Z,8.25
2018-03-14T22:59:18.702Z,5.03
2018-03-14T23:01:46.752Z,10.57
2018-03-14T23:04:14.313Z,7.57
2018-03-14T23:06:41.886Z,8.90
2018-03-14T23:09:09.636Z,5.37
2018-03-14T23:11:37.123Z,8.75
2018-03-14T23:14:05.150Z,6.55
2018-03-14T23:16:32.702Z,6.87
2018-03-14T23:19:00.220Z,6.07
2018-03-14T23:21:28.356Z,10.05
2018-03-14T23:23:56.984Z,7.12
2018-03-14T23:26:26.961Z,10.02
2018-03-14T23:28:54.939Z,7.32
2018-03-14T23:31:23.485Z,7.15
2018-03-14T23:33:51.003Z,9.98
2018-03-14T23:36:18.563Z,10.50
2018-03-14T23:38:46.112Z,5.43
2018-03-14T23:41:14.102Z,6.72
2018-03-14T23:43:41.999Z,7.82
2018-03-14T23:46:09.552Z,9.85
2018-03-14T23:48:37.079Z,6.35
2018-03-14T23:51:04.974Z,9.98
2018-03-14T23:53:32.457Z,4.97
2018-03-14T23:55:59.960Z,6.93
2018-03-14T23:58:27.443Z,8.40
